Page1 WS2500-PC V3.1 - Standort Bad Erlach 338m ber NN

Wetterstation Bad Erlach
Freitag, 22. Januar 2021
letzte Aktualisierung 04:45
Außentemperatur 6,3 C
Minimum Außentemperatur -3,9 C   (07:45)
Maximum Außentemperatur 9,3 C   (00:20)
Luftfeuchte 80 %
Taupunkt 3,1 C
Luftdruck 1002,8 hPa
Luftdrucktendenz fallend
Windgeschwindigkeit 0,0 km/h
Windspitzen 0,0 km/h
Windrichtung Sdost
Temperaturänderung d. letzten Stunde -1,5 C
Regen heute 0,0 mm
Regen aktuell 0,0 mm
Tiefsttemperatur 2021 am 12.01.2021 -9,1 C
Hchsttemperatur 2021 am 21.01.2021 8,9 C
Am 22.01.2020  war die Temperatur zwischen -2,6 C  und  2,3 C
Am 22.01.2019  war die Temperatur zwischen -9,0 C  und  -2,4 C
Am 22.01.2018  war die Temperatur zwischen -2,9 C  und  2,7 C
Am 22.01.2017  war die Temperatur zwischen -10,4 C  und  0,7 C
Am 22.01.2016  war die Temperatur zwischen -12,6 C  und  -3,8 C
Am 22.01.2015  war die Temperatur zwischen -0,7 C  und  7,7 C
Am 22.01.2014  war die Temperatur zwischen 0,8 C  und  5,1 C
Am 22.01.2013  war die Temperatur zwischen -1,7 C  und  1,8 C
Am 22.01.2012  war die Temperatur zwischen 2,4 C  und  7,1 C
Daten fr Temperaturdecke
Am 01.01.2020 um 12:00 Uhr 1,3 C um 14:00 2,8 C
Am 02.01.2020 um 12:00 Uhr 0,6 C um 14:00 1,6 C
Am 03.01.2020 um 12:00 Uhr -0,7 C um 14:00 -0,2 C
Am 04.01.2020 um 12:00 Uhr 5,6 C um 14:00 5,0 C
Am 05.01.2020 um 12:00 Uhr 3,1 C um 14:00 3,2 C
Am 06.01.2020 um 12:00 Uhr -0,8 C um 14:00 0,6 C
Am 07.01.2020 um 12:00 Uhr -0,4 C um 14:00 2,2 C
Am 08.01.2020 um 12:00 Uhr 1,4 C um 14:00 3,2 C
Am 09.01.2020 um 12:00 Uhr 1,5 C um 14:00 2,0 C
Am 10.01.2020 um 12:00 Uhr -0,6 C um 14:00 -0,4 C
Am 11.01.2020 um 12:00 Uhr 7,2 C um 14:00 7,6 C
Am 12.01.2020 um 12:00 Uhr 0,8 C um 14:00 1,5 C
Am 13.01.2020 um 12:00 Uhr 3,1 C um 14:00 4,1 C
Am 14.01.2020 um 12:00 Uhr 0,0 C um 14:00 0,3 C
Am 15.01.2020 um 12:00 Uhr -1,3 C um 14:00 0,4 C
Am 16.01.2020 um 12:00 Uhr 0,2 C um 14:00 1,9 C
Am 17.01.2020 um 12:00 Uhr -0,4 C um 14:00 0,4 C
Am 18.01.2020 um 12:00 Uhr -1,1 C um 14:00 -0,8 C
Am 19.01.2020 um 12:00 Uhr 2,9 C um 14:00 2,8 C
Am 20.01.2020 um 12:00 Uhr 2,7 C um 14:00 3,4 C
Am 21.01.2020 um 12:00 Uhr -0,6 C um 14:00 -1,4 C
Am 22.01.2020 um 12:00 Uhr -1,0 C um 14:00 1,3 C
Am 23.01.2020 um 12:00 Uhr 2,6 C um 14:00 3,6 C
Am 24.01.2020 um 12:00 Uhr -0,7 C um 14:00 -0,3 C
Am 25.01.2020 um 12:00 Uhr -2,3 C um 14:00 -2,1 C
Am 26.01.2020 um 12:00 Uhr -2,2 C um 14:00 -1,8 C
Am 27.01.2020 um 12:00 Uhr -1,1 C um 14:00 1,7 C
Am 28.01.2020 um 12:00 Uhr -0,3 C um 14:00 -0,1 C
Am 29.01.2020 um 12:00 Uhr 4,6 C um 14:00 5,0 C
Am 30.01.2020 um 12:00 Uhr 8,5 C um 14:00 9,5 C
Am 31.01.2020 um 12:00 Uhr 15,3 C um 14:00 15,7 C
Am 01.02.2020 um 12:00 Uhr 10,4 C um 14:00 15,1 C
Am 02.02.2020 um 12:00 Uhr 14,1 C um 14:00 13,6 C
Am 03.02.2020 um 12:00 Uhr 9,5 C um 14:00 10,9 C
Am 04.02.2020 um 12:00 Uhr 5,4 C um 14:00 5,9 C
Am 05.02.2020 um 12:00 Uhr 3,4 C um 14:00 2,5 C
Am 06.02.2020 um 12:00 Uhr 5,5 C um 14:00 5,8 C
Am 07.02.2020 um 12:00 Uhr 5,9 C um 14:00 6,3 C
Am 08.02.2020 um 12:00 Uhr 4,3 C um 14:00 6,9 C
Am 09.02.2020 um 12:00 Uhr 3,4 C um 14:00 6,8 C
Am 10.02.2020 um 12:00 Uhr 14,9 C um 14:00 9,5 C
Am 11.02.2020 um 12:00 Uhr 6,6 C um 14:00 4,3 C
Am 12.02.2020 um 12:00 Uhr 6,1 C um 14:00 6,3 C
Am 13.02.2020 um 12:00 Uhr 5,4 C um 14:00 7,2 C
Am 14.02.2020 um 12:00 Uhr 8,8 C um 14:00 8,8 C
Am 15.02.2020 um 12:00 Uhr 10,4 C um 14:00 11,2 C
Am 16.02.2020 um 12:00 Uhr 9,4 C um 14:00 14,2 C
Am 17.02.2020 um 12:00 Uhr 10,1 C um 14:00 12,6 C
Am 18.02.2020 um 12:00 Uhr 10,3 C um 14:00 10,9 C
Am 19.02.2020 um 12:00 Uhr 8,3 C um 14:00 8,3 C
Am 20.02.2020 um 12:00 Uhr 8,3 C um 14:00 9,7 C
Am 21.02.2020 um 12:00 Uhr 6,8 C um 14:00 5,8 C
Am 22.02.2020 um 12:00 Uhr 12,2 C um 14:00 13,4 C
Am 23.02.2020 um 12:00 Uhr 15,1 C um 14:00 14,4 C
Am 24.02.2020 um 12:00 Uhr 7,8 C um 14:00 8,7 C
Am 25.02.2020 um 12:00 Uhr 16,8 C um 14:00 16,5 C
Am 26.02.2020 um 12:00 Uhr 5,7 C um 14:00 5,1 C
Am 27.02.2020 um 12:00 Uhr 6,6 C um 14:00 7,3 C
Am 28.02.2020 um 12:00 Uhr 5,0 C um 14:00 4,4 C
Am 29.02.2020 um 12:00 Uhr 9,6 C um 14:00 8,9 C
Am 01.03.2020 um 12:00 Uhr 9,6 C um 14:00 9,4 C
Am 02.03.2020 um 12:00 Uhr 13,1 C um 14:00 13,0 C
Am 03.03.2020 um 12:00 Uhr 8,2 C um 14:00 9,7 C
Am 04.03.2020 um 12:00 Uhr 8,4 C um 14:00 8,4 C
Am 05.03.2020 um 12:00 Uhr 10,1 C um 14:00 10,1 C
Am 06.03.2020 um 12:00 Uhr 6,2 C um 14:00 7,9 C
Am 07.03.2020 um 12:00 Uhr 8,8 C um 14:00 8,1 C
Am 08.03.2020 um 12:00 Uhr 7,5 C um 14:00 8,4 C
Am 09.03.2020 um 12:00 Uhr 7,8 C um 14:00 9,3 C
Am 10.03.2020 um 12:00 Uhr 12,2 C um 14:00 13,3 C
Am 11.03.2020 um 12:00 Uhr 18,0 C um 14:00 16,9 C
Am 12.03.2020 um 12:00 Uhr 20,7 C um 14:00 22,4 C
Am 13.03.2020 um 12:00 Uhr 9,3 C um 14:00 9,3 C
Am 14.03.2020 um 12:00 Uhr 9,8 C um 14:00 9,4 C
Am 15.03.2020 um 12:00 Uhr 7,7 C um 14:00 8,6 C
Am 16.03.2020 um 12:00 Uhr 11,9 C um 14:00 12,9 C
Am 17.03.2020 um 12:00 Uhr 14,7 C um 14:00 14,7 C
Am 18.03.2020 um 12:00 Uhr 17,5 C um 14:00 18,3 C
Am 19.03.2020 um 12:00 Uhr 17,4 C um 14:00 19,3 C
Am 20.03.2020 um 12:00 Uhr 17,9 C um 14:00 20,7 C
Am 21.03.2020 um 12:00 Uhr 4,1 C um 14:00 3,8 C
Am 22.03.2020 um 12:00 Uhr 3,4 C um 14:00 2,4 C
Am 23.03.2020 um 12:00 Uhr 1,2 C um 14:00 2,0 C
Am 24.03.2020 um 12:00 Uhr 2,8 C um 14:00 4,9 C
Am 25.03.2020 um 12:00 Uhr -0,7 C um 14:00 -0,6 C
Am 26.03.2020 um 12:00 Uhr 1,9 C um 14:00 3,8 C
Am 27.03.2020 um 12:00 Uhr 14,2 C um 14:00 14,8 C
Am 28.03.2020 um 12:00 Uhr 16,9 C um 14:00 18,5 C
Am 29.03.2020 um 12:00 Uhr 12,3 C um 14:00 13,8 C
Am 30.03.2020 um 12:00 Uhr 2,6 C um 14:00 4,3 C
Am 31.03.2020 um 12:00 Uhr 5,7 C um 14:00 6,4 C
Am 01.04.2020 um 12:00 Uhr 5,5 C um 14:00 7,2 C
Am 02.04.2020 um 12:00 Uhr 10,7 C um 14:00 12,5 C
Am 03.04.2020 um 12:00 Uhr 13,7 C um 14:00 14,7 C
Am 04.04.2020 um 12:00 Uhr 12,6 C um 14:00 13,6 C
Am 05.04.2020 um 12:00 Uhr 12,9 C um 14:00 15,7 C
Am 06.04.2020 um 12:00 Uhr 17,3 C um 14:00 17,5 C
Am 07.04.2020 um 12:00 Uhr 17,4 C um 14:00 18,5 C
Am 08.04.2020 um 12:00 Uhr 18,8 C um 14:00 19,6 C
Am 09.04.2020 um 12:00 Uhr 21,3 C um 14:00 22,5 C
Am 10.04.2020 um 12:00 Uhr 17,1 C um 14:00 19,3 C
Am 11.04.2020 um 12:00 Uhr 17,3 C um 14:00 19,0 C
Am 12.04.2020 um 12:00 Uhr 19,5 C um 14:00 22,2 C
Am 13.04.2020 um 12:00 Uhr 19,8 C um 14:00 20,1 C
Am 14.04.2020 um 12:00 Uhr 6,9 C um 14:00 7,2 C
Am 15.04.2020 um 12:00 Uhr 12,5 C um 14:00 15,1 C
Am 16.04.2020 um 12:00 Uhr 20,3 C um 14:00 23,2 C
Am 17.04.2020 um 12:00 Uhr 22,9 C um 14:00 24,3 C
Am 18.04.2020 um 12:00 Uhr 19,5 C um 14:00 20,2 C
Am 19.04.2020 um 12:00 Uhr 13,7 C um 14:00 11,7 C
Am 20.04.2020 um 12:00 Uhr 14,2 C um 14:00 15,8 C
Am 21.04.2020 um 12:00 Uhr 14,7 C um 14:00 15,0 C
Am 22.04.2020 um 12:00 Uhr 16,4 C um 14:00 17,4 C
Am 23.04.2020 um 12:00 Uhr 17,4 C um 14:00 18,7 C
Am 24.04.2020 um 12:00 Uhr 21,8 C um 14:00 22,8 C
Am 25.04.2020 um 12:00 Uhr 18,4 C um 14:00 19,9 C
Am 26.04.2020 um 12:00 Uhr 15,6 C um 14:00 17,2 C
Am 27.04.2020 um 12:00 Uhr 18,9 C um 14:00 19,9 C
Am 28.04.2020 um 12:00 Uhr 22,2 C um 14:00 23,2 C
Am 29.04.2020 um 12:00 Uhr 12,7 C um 14:00 12,8 C
Am 30.04.2020 um 12:00 Uhr 19,3 C um 14:00 19,6 C
Am 01.05.2020 um 12:00 Uhr 16,5 C um 14:00 17,7 C
Am 02.05.2020 um 12:00 Uhr 16,6 C um 14:00 17,7 C
Am 03.05.2020 um 12:00 Uhr 13,1 C um 14:00 13,9 C
Am 04.05.2020 um 12:00 Uhr 18,3 C um 14:00 17,7 C
Am 05.05.2020 um 12:00 Uhr 9,3 C um 14:00 10,4 C
Am 06.05.2020 um 12:00 Uhr 11,7 C um 14:00 13,9 C
Am 07.05.2020 um 12:00 Uhr 17,0 C um 14:00 19,3 C
Am 08.05.2020 um 12:00 Uhr 21,1 C um 14:00 24,3 C
Am 09.05.2020 um 12:00 Uhr 23,8 C um 14:00 25,3 C
Am 10.05.2020 um 12:00 Uhr 23,9 C um 14:00 22,9 C
Am 11.05.2020 um 12:00 Uhr 21,1 C um 14:00 21,6 C
Am 12.05.2020 um 12:00 Uhr 8,1 C um 14:00 11,3 C
Am 13.05.2020 um 12:00 Uhr 18,4 C um 14:00 19,1 C
Am 14.05.2020 um 12:00 Uhr 16,4 C um 14:00 15,3 C
Am 15.05.2020 um 12:00 Uhr 8,6 C um 14:00 8,4 C
Am 16.05.2020 um 12:00 Uhr 15,3 C um 14:00 17,2 C
Am 17.05.2020 um 12:00 Uhr 17,0 C um 14:00 21,1 C
Am 18.05.2020 um 12:00 Uhr 23,9 C um 14:00 23,6 C
Am 19.05.2020 um 12:00 Uhr 25,0 C um 14:00 24,2 C
Am 20.05.2020 um 12:00 Uhr 17,7 C um 14:00 19,5 C
Am 21.05.2020 um 12:00 Uhr 18,9 C um 14:00 19,7 C
Am 22.05.2020 um 12:00 Uhr 18,6 C um 14:00 21,2 C
Am 23.05.2020 um 12:00 Uhr 15,5 C um 14:00 20,3 C
Am 24.05.2020 um 12:00 Uhr 15,9 C um 14:00 16,6 C
Am 25.05.2020 um 12:00 Uhr 10,3 C um 14:00 16,3 C
Am 26.05.2020 um 12:00 Uhr 10,7 C um 14:00 10,3 C
Am 27.05.2020 um 12:00 Uhr 17,3 C um 14:00 19,0 C
Am 28.05.2020 um 12:00 Uhr 14,6 C um 14:00 12,9 C
Am 29.05.2020 um 12:00 Uhr 14,5 C um 14:00 17,0 C
Am 30.05.2020 um 12:00 Uhr 11,4 C um 14:00 13,7 C
Am 31.05.2020 um 12:00 Uhr 11,9 C um 14:00 10,3 C
Am 01.06.2020 um 12:00 Uhr 18,6 C um 14:00 19,6 C
Am 02.06.2020 um 12:00 Uhr 19,4 C um 14:00 18,3 C
Am 03.06.2020 um 12:00 Uhr 20,9 C um 14:00 17,8 C
Am 04.06.2020 um 12:00 Uhr 22,9 C um 14:00 24,1 C
Am 05.06.2020 um 12:00 Uhr 16,0 C um 14:00 16,2 C
Am 06.06.2020 um 12:00 Uhr 20,7 C um 14:00 22,6 C
Am 07.06.2020 um 12:00 Uhr 25,4 C um 14:00 26,4 C
Am 08.06.2020 um 12:00 Uhr 15,0 C um 14:00 17,2 C
Am 09.06.2020 um 12:00 Uhr 16,7 C um 14:00 17,3 C
Am 10.06.2020 um 12:00 Uhr 13,9 C um 14:00 15,9 C
Am 11.06.2020 um 12:00 Uhr 20,4 C um 14:00 21,5 C
Am 12.06.2020 um 12:00 Uhr 25,0 C um 14:00 26,0 C
Am 13.06.2020 um 12:00 Uhr 27,7 C um 14:00 28,4 C
Am 14.06.2020 um 12:00 Uhr 22,9 C um 14:00 19,9 C
Am 15.06.2020 um 12:00 Uhr 18,1 C um 14:00 18,8 C
Am 16.06.2020 um 12:00 Uhr 21,2 C um 14:00 21,7 C
Am 17.06.2020 um 12:00 Uhr 21,5 C um 14:00 20,8 C
Am 18.06.2020 um 12:00 Uhr 21,1 C um 14:00 20,9 C
Am 19.06.2020 um 12:00 Uhr 23,4 C um 14:00 23,1 C
Am 20.06.2020 um 12:00 Uhr 17,0 C um 14:00 15,4 C
Am 21.06.2020 um 12:00 Uhr 15,0 C um 14:00 15,2 C
Am 22.06.2020 um 12:00 Uhr 19,7 C um 14:00 20,8 C
Am 23.06.2020 um 12:00 Uhr 21,3 C um 14:00 23,0 C
Am 24.06.2020 um 12:00 Uhr 21,0 C um 14:00 20,8 C
Am 25.06.2020 um 12:00 Uhr 18,8 C um 14:00 19,4 C
Am 26.06.2020 um 12:00 Uhr 25,3 C um 14:00 26,7 C
Am 27.06.2020 um 12:00 Uhr 29,3 C um 14:00 26,2 C
Am 28.06.2020 um 12:00 Uhr 29,6 C um 14:00 30,8 C
Am 29.06.2020 um 12:00 Uhr 17,9 C um 14:00 16,9 C
Am 30.06.2020 um 12:00 Uhr 25,2 C um 14:00 25,1 C
Am 01.07.2020 um 12:00 Uhr 28,5 C um 14:00 29,2 C
Am 02.07.2020 um 12:00 Uhr 27,9 C um 14:00 27,3 C
Am 03.07.2020 um 12:00 Uhr 19,0 C um 14:00 21,6 C
Am 04.07.2020 um 12:00 Uhr 23,3 C um 14:00 24,8 C
Am 05.07.2020 um 12:00 Uhr 27,3 C um 14:00 29,1 C
Am 06.07.2020 um 12:00 Uhr 29,6 C um 14:00 27,3 C
Am 07.07.2020 um 12:00 Uhr 18,8 C um 14:00 20,7 C
Am 08.07.2020 um 12:00 Uhr 24,5 C um 14:00 24,1 C
Am 09.07.2020 um 12:00 Uhr 27,1 C um 14:00 27,4 C
Am 10.07.2020 um 12:00 Uhr 30,2 C um 14:00 31,1 C
Am 11.07.2020 um 12:00 Uhr 19,4 C um 14:00 15,7 C
Am 12.07.2020 um 12:00 Uhr 18,4 C um 14:00 19,7 C
Am 13.07.2020 um 12:00 Uhr 21,4 C um 14:00 22,2 C
Am 14.07.2020 um 12:00 Uhr 21,7 C um 14:00 22,1 C
Am 15.07.2020 um 12:00 Uhr 24,4 C um 14:00 25,2 C
Am 16.07.2020 um 12:00 Uhr 20,8 C um 14:00 23,2 C
Am 17.07.2020 um 12:00 Uhr 18,8 C um 14:00 19,8 C
Am 18.07.2020 um 12:00 Uhr 14,8 C um 14:00 15,0 C
Am 19.07.2020 um 12:00 Uhr 18,8 C um 14:00 21,4 C
Am 20.07.2020 um 12:00 Uhr 26,5 C um 14:00 27,4 C
Am 21.07.2020 um 12:00 Uhr 26,4 C um 14:00 28,0 C
Am 22.07.2020 um 12:00 Uhr 24,2 C um 14:00 21,1 C
Am 23.07.2020 um 12:00 Uhr 25,5 C um 14:00 25,6 C
Am 24.07.2020 um 12:00 Uhr 25,4 C um 14:00 26,2 C
Am 25.07.2020 um 12:00 Uhr 19,7 C um 14:00 22,5 C
Am 26.07.2020 um 12:00 Uhr 26,8 C um 14:00 25,4 C
Am 27.07.2020 um 12:00 Uhr 26,2 C um 14:00 26,2 C
Am 28.07.2020 um 12:00 Uhr 31,6 C um 14:00 29,8 C
Am 29.07.2020 um 12:00 Uhr 24,8 C um 14:00 27,2 C
Am 30.07.2020 um 12:00 Uhr 28,0 C um 14:00 29,2 C
Am 31.07.2020 um 12:00 Uhr 30,0 C um 14:00 30,7 C
Am 01.08.2020 um 12:00 Uhr 26,9 C um 14:00 28,2 C
Am 02.08.2020 um 12:00 Uhr 27,2 C um 14:00 28,0 C
Am 03.08.2020 um 12:00 Uhr 18,7 C um 14:00 20,2 C
Am 04.08.2020 um 12:00 Uhr 19,5 C um 14:00 20,6 C
Am 05.08.2020 um 12:00 Uhr 13,9 C um 14:00 14,3 C
Am 06.08.2020 um 12:00 Uhr 23,4 C um 14:00 23,4 C
Am 07.08.2020 um 12:00 Uhr 27,1 C um 14:00 28,5 C
Am 08.08.2020 um 12:00 Uhr 28,8 C um 14:00 30,7 C
Am 09.08.2020 um 12:00 Uhr 29,1 C um 14:00 30,1 C
Am 10.08.2020 um 12:00 Uhr 29,2 C um 14:00 30,7 C
Am 11.08.2020 um 12:00 Uhr 25,9 C um 14:00 24,4 C
Am 12.08.2020 um 12:00 Uhr 27,6 C um 14:00 28,9 C
Am 13.08.2020 um 12:00 Uhr 28,4 C um 14:00 29,3 C
Am 14.08.2020 um 12:00 Uhr 25,0 C um 14:00 26,4 C
Am 15.08.2020 um 12:00 Uhr 23,4 C um 14:00 25,4 C
Am 16.08.2020 um 12:00 Uhr 19,8 C um 14:00 22,2 C
Am 17.08.2020 um 12:00 Uhr 23,5 C um 14:00 21,1 C
Am 18.08.2020 um 12:00 Uhr 19,7 C um 14:00 21,3 C
Am 19.08.2020 um 12:00 Uhr 22,9 C um 14:00 24,1 C
Am 20.08.2020 um 12:00 Uhr 26,0 C um 14:00 27,2 C
Am 21.08.2020 um 12:00 Uhr 28,8 C um 14:00 29,7 C
Am 22.08.2020 um 12:00 Uhr 28,4 C um 14:00 31,4 C
Am 23.08.2020 um 12:00 Uhr 24,3 C um 14:00 26,0 C
Am 24.08.2020 um 12:00 Uhr 22,7 C um 14:00 23,2 C
Am 25.08.2020 um 12:00 Uhr 23,3 C um 14:00 24,6 C
Am 26.08.2020 um 12:00 Uhr 25,6 C um 14:00 29,6 C
Am 27.08.2020 um 12:00 Uhr 25,3 C um 14:00 26,1 C
Am 28.08.2020 um 12:00 Uhr 26,4 C um 14:00 26,3 C
Am 29.08.2020 um 12:00 Uhr 22,9 C um 14:00 23,4 C
Am 30.08.2020 um 12:00 Uhr 22,3 C um 14:00 25,8 C
Am 31.08.2020 um 12:00 Uhr 18,6 C um 14:00 20,3 C
Am 01.09.2020 um 12:00 Uhr 13,6 C um 14:00 16,8 C
Am 02.09.2020 um 12:00 Uhr 19,1 C um 14:00 19,4 C
Am 03.09.2020 um 12:00 Uhr 20,7 C um 14:00 21,1 C
Am 04.09.2020 um 12:00 Uhr 19,2 C um 14:00 23,4 C
Am 05.09.2020 um 12:00 Uhr 24,4 C um 14:00 27,4 C
Am 06.09.2020 um 12:00 Uhr 18,3 C um 14:00 18,9 C
Am 07.09.2020 um 12:00 Uhr 18,8 C um 14:00 18,9 C
Am 08.09.2020 um 12:00 Uhr 20,9 C um 14:00 21,9 C
Am 09.09.2020 um 12:00 Uhr 22,6 C um 14:00 25,6 C
Am 10.09.2020 um 12:00 Uhr 24,6 C um 14:00 25,6 C
Am 11.09.2020 um 12:00 Uhr 22,0 C um 14:00 23,8 C
Am 12.09.2020 um 12:00 Uhr 25,0 C um 14:00 26,3 C
Am 13.09.2020 um 12:00 Uhr 24,2 C um 14:00 27,1 C
Am 14.09.2020 um 12:00 Uhr 25,4 C um 14:00 26,8 C
Am 15.09.2020 um 12:00 Uhr 26,2 C um 14:00 27,3 C
Am 16.09.2020 um 12:00 Uhr 26,7 C um 14:00 26,9 C
Am 17.09.2020 um 12:00 Uhr 18,7 C um 14:00 22,6 C
Am 18.09.2020 um 12:00 Uhr 15,9 C um 14:00 17,4 C
Am 19.09.2020 um 12:00 Uhr 19,9 C um 14:00 20,1 C
Am 20.09.2020 um 12:00 Uhr 20,4 C um 14:00 21,4 C
Am 21.09.2020 um 12:00 Uhr 21,9 C um 14:00 23,7 C
Am 22.09.2020 um 12:00 Uhr 24,2 C um 14:00 25,3 C
Am 23.09.2020 um 12:00 Uhr 22,7 C um 14:00 23,4 C
Am 24.09.2020 um 12:00 Uhr 19,3 C um 14:00 21,9 C
Am 25.09.2020 um 12:00 Uhr 13,8 C um 14:00 14,6 C
Am 26.09.2020 um 12:00 Uhr 11,3 C um 14:00 13,1 C
Am 27.09.2020 um 12:00 Uhr 14,7 C um 14:00 17,0 C
Am 28.09.2020 um 12:00 Uhr 9,3 C um 14:00 10,8 C
Am 29.09.2020 um 12:00 Uhr 14,6 C um 14:00 14,3 C
Am 30.09.2020 um 12:00 Uhr 15,7 C um 14:00 16,9 C
Am 01.10.2020 um 12:00 Uhr 17,7 C um 14:00 19,0 C
Am 02.10.2020 um 12:00 Uhr 14,7 C um 14:00 18,5 C
Am 03.10.2020 um 12:00 Uhr 21,6 C um 14:00 21,2 C
Am 04.10.2020 um 12:00 Uhr 19,3 C um 14:00 20,9 C
Am 05.10.2020 um 12:00 Uhr 14,5 C um 14:00 17,6 C
Am 06.10.2020 um 12:00 Uhr 16,5 C um 14:00 18,8 C
Am 07.10.2020 um 12:00 Uhr 13,7 C um 14:00 14,9 C
Am 08.10.2020 um 12:00 Uhr 15,1 C um 14:00 16,2 C
Am 09.10.2020 um 12:00 Uhr 15,7 C um 14:00 21,0 C
Am 10.10.2020 um 12:00 Uhr 16,9 C um 14:00 17,2 C
Am 11.10.2020 um 12:00 Uhr 9,4 C um 14:00 8,9 C
Am 12.10.2020 um 12:00 Uhr 8,1 C um 14:00 8,2 C
Am 13.10.2020 um 12:00 Uhr 6,4 C um 14:00 6,8 C
Am 14.10.2020 um 12:00 Uhr 9,2 C um 14:00 9,8 C
Am 15.10.2020 um 12:00 Uhr 8,9 C um 14:00 10,2 C
Am 16.10.2020 um 12:00 Uhr 6,2 C um 14:00 7,6 C
Am 17.10.2020 um 12:00 Uhr 8,0 C um 14:00 9,9 C
Am 18.10.2020 um 12:00 Uhr 9,9 C um 14:00 11,7 C
Am 19.10.2020 um 12:00 Uhr 8,7 C um 14:00 9,4 C
Am 20.10.2020 um 12:00 Uhr 12,8 C um 14:00 12,6 C
Am 21.10.2020 um 12:00 Uhr 7,3 C um 14:00 8,3 C
Am 22.10.2020 um 12:00 Uhr 8,8 C um 14:00 12,3 C
Am 23.10.2020 um 12:00 Uhr 9,1 C um 14:00 10,4 C
Am 24.10.2020 um 12:00 Uhr 13,1 C um 14:00 14,7 C
Am 25.10.2020 um 12:00 Uhr 10,4 C um 14:00 12,5 C
Am 26.10.2020 um 12:00 Uhr 16,9 C um 14:00 17,0 C
Am 27.10.2020 um 12:00 Uhr 8,8 C um 14:00 8,3 C
Am 28.10.2020 um 12:00 Uhr 10,9 C um 14:00 12,4 C
Am 29.10.2020 um 12:00 Uhr 11,1 C um 14:00 12,7 C
Am 30.10.2020 um 12:00 Uhr 11,6 C um 14:00 12,9 C
Am 31.10.2020 um 12:00 Uhr 15,9 C um 14:00 16,5 C
Am 01.11.2020 um 12:00 Uhr 10,6 C um 14:00 11,4 C
Am 02.11.2020 um 12:00 Uhr 18,8 C um 14:00 20,3 C
Am 03.11.2020 um 12:00 Uhr 19,6 C um 14:00 20,1 C
Am 04.11.2020 um 12:00 Uhr 12,1 C um 14:00 11,8 C
Am 05.11.2020 um 12:00 Uhr 9,3 C um 14:00 10,5 C
Am 06.11.2020 um 12:00 Uhr 7,1 C um 14:00 8,4 C
Am 07.11.2020 um 12:00 Uhr 7,3 C um 14:00 8,8 C
Am 08.11.2020 um 12:00 Uhr 4,9 C um 14:00 4,9 C
Am 09.11.2020 um 12:00 Uhr 4,1 C um 14:00 4,8 C
Am 10.11.2020 um 12:00 Uhr 4,3 C um 14:00 5,1 C
Am 11.11.2020 um 12:00 Uhr 7,0 C um 14:00 7,3 C
Am 12.11.2020 um 12:00 Uhr 6,6 C um 14:00 7,2 C
Am 13.11.2020 um 12:00 Uhr 5,7 C um 14:00 5,2 C
Am 14.11.2020 um 12:00 Uhr 7,9 C um 14:00 8,4 C
Am 15.11.2020 um 12:00 Uhr 6,1 C um 14:00 7,4 C
Am 16.11.2020 um 12:00 Uhr 5,8 C um 14:00 6,9 C
Am 17.11.2020 um 12:00 Uhr 11,9 C um 14:00 11,6 C
Am 18.11.2020 um 12:00 Uhr 7,7 C um 14:00 9,4 C
Am 19.11.2020 um 12:00 Uhr 3,8 C um 14:00 5,2 C
Am 20.11.2020 um 12:00 Uhr 4,8 C um 14:00 5,4 C
Am 21.11.2020 um 12:00 Uhr 3,1 C um 14:00 4,1 C
Am 22.11.2020 um 12:00 Uhr 1,8 C um 14:00 4,1 C
Am 23.11.2020 um 12:00 Uhr 2,9 C um 14:00 5,1 C
Am 24.11.2020 um 12:00 Uhr 7,7 C um 14:00 7,7 C
Am 25.11.2020 um 12:00 Uhr 1,5 C um 14:00 3,0 C
Am 26.11.2020 um 12:00 Uhr 0,1 C um 14:00 0,2 C
Am 27.11.2020 um 12:00 Uhr -0,2 C um 14:00 1,1 C
Am 28.11.2020 um 12:00 Uhr -0,6 C um 14:00 -0,1 C
Am 29.11.2020 um 12:00 Uhr 3,8 C um 14:00 4,2 C
Am 30.11.2020 um 12:00 Uhr 3,2 C um 14:00 4,1 C
Am 01.12.2020 um 12:00 Uhr -2,9 C um 14:00 0,0 C
Am 02.12.2020 um 12:00 Uhr 0,3 C um 14:00 0,5 C
Am 03.12.2020 um 12:00 Uhr -0,9 C um 14:00 -0,5 C
Am 04.12.2020 um 12:00 Uhr 4,0 C um 14:00 4,4 C
Am 05.12.2020 um 12:00 Uhr 7,9 C um 14:00 8,2 C
Am 06.12.2020 um 12:00 Uhr 8,0 C um 14:00 8,5 C
Am 07.12.2020 um 12:00 Uhr 7,1 C um 14:00 6,9 C
Am 08.12.2020 um 12:00 Uhr 6,9 C um 14:00 4,1 C
Am 09.12.2020 um 12:00 Uhr 2,2 C um 14:00 2,2 C
Am 10.12.2020 um 12:00 Uhr 2,1 C um 14:00 2,7 C
Am 11.12.2020 um 12:00 Uhr 3,0 C um 14:00 3,6 C
Am 12.12.2020 um 12:00 Uhr 4,6 C um 14:00 4,6 C
Am 13.12.2020 um 12:00 Uhr 3,4 C um 14:00 4,2 C
Am 14.12.2020 um 12:00 Uhr 4,9 C um 14:00 4,8 C
Am 15.12.2020 um 12:00 Uhr 0,7 C um 14:00 2,2 C
Am 16.12.2020 um 12:00 Uhr 1,9 C um 14:00 2,1 C
Am 17.12.2020 um 12:00 Uhr 1,6 C um 14:00 1,5 C
Am 18.12.2020 um 12:00 Uhr 1,6 C um 14:00 1,2 C
Am 19.12.2020 um 12:00 Uhr 2,9 C um 14:00 3,7 C
Am 20.12.2020 um 12:00 Uhr 2,1 C um 14:00 2,0 C
Am 21.12.2020 um 12:00 Uhr 2,4 C um 14:00 3,7 C
Am 22.12.2020 um 12:00 Uhr 3,2 C um 14:00 4,4 C
Am 23.12.2020 um 12:00 Uhr 8,9 C um 14:00 9,7 C
Am 24.12.2020 um 12:00 Uhr 7,2 C um 14:00 7,9 C
Am 25.12.2020 um 12:00 Uhr 4,2 C um 14:00 3,8 C
Am 26.12.2020 um 12:00 Uhr 1,2 C um 14:00 1,3 C
Am 27.12.2020 um 12:00 Uhr 0,7 C um 14:00 0,9 C
Am 28.12.2020 um 12:00 Uhr 4,6 C um 14:00 4,5 C
Am 29.12.2020 um 12:00 Uhr 6,3 C um 14:00 7,8 C
Am 30.12.2020 um 12:00 Uhr 3,6 C um 14:00 3,4 C
Am 31.12.2020 um 12:00 Uhr 1,4 C um 14:00 2,1 C